Time,TemperatureF,DewpointF,PressureIn,WindDirection,WindDirectionDegrees,WindSpeedMPH,WindSpeedGustMPH,Humidity,HourlyPrecipIn,Conditions,Clouds,dailyrainin,SoftwareType,DateUTC
2013-01-25 00:02:00,59.5,50.6,30.22,North,357,0.0,0.0,72,0.04,,,0.00,WUHU216WMR968SP,2013-01-25 08:02:00,
2013-01-25 00:07:00,59.5,51.0,30.19,North,10,0.0,0.0,73,0.04,,,0.00,WUHU216WMR968SP,2013-01-25 08:07:00,
2013-01-25 00:12:00,59.5,51.3,30.19,North,353,0.0,0.0,74,0.04,,,0.00,WUHU216WMR968SP,2013-01-25 08:12:00,
2013-01-25 00:17:00,59.4,51.6,30.19,North,350,0.0,0.0,75,0.04,,,0.00,WUHU216WMR968SP,2013-01-25 08:17:00,
2013-01-25 00:22:00,59.4,51.9,30.19,NNW,348,0.0,0.0,76,0.04,,,0.00,WUHU216WMR968SP,2013-01-25 08:22:00,
2013-01-25 00:27:00,59.2,51.7,30.19,North,9,0.0,0.0,76,0.04,,,0.00,WUHU216WMR968SP,2013-01-25 08:27:00,
2013-01-25 00:32:00,59.2,51.7,30.19,North,4,0.0,0.0,76,0.04,,,0.00,WUHU216WMR968SP,2013-01-25 08:32:00,
2013-01-25 00:37:00,59.2,51.7,30.19,North,3,0.0,0.0,76,0.04,,,0.00,WUHU216WMR968SP,2013-01-25 08:37:00,
2013-01-25 00:42:00,59.4,51.6,30.19,NNW,348,0.0,0.0,75,0.04,,,0.00,WUHU216WMR968SP,2013-01-25 08:42:00,
2013-01-25 00:47:00,59.4,51.6,30.19,NNE,24,0.0,0.0,75,0.04,,,0.00,WUHU216WMR968SP,2013-01-25 08:47:00,
2013-01-25 00:52:00,59.5,50.6,30.19,NNE,15,0.0,0.0,72,0.00,,,0.00,WUHU216WMR968SP,2013-01-25 08:52:00,
2013-01-25 00:57:00,59.7,50.8,30.19,North,11,0.0,0.0,72,0.00,,,0.00,WUHU216WMR968SP,2013-01-25 08:57:00,
2013-01-25 01:02:00,60.1,51.2,30.19,NNE,20,0.0,0.0,72,0.00,,,0.00,WUHU216WMR968SP,2013-01-25 09:02:00,
2013-01-25 01:07:00,60.1,50.8,30.19,North,9,0.0,0.0,71,0.00,,,0.00,WUHU216WMR968SP,2013-01-25 09:07:00,
2013-01-25 01:12:00,60.3,51.0,30.19,North,4,0.0,0.0,71,0.00,,,0.00,WUHU216WMR968SP,2013-01-25 09:12:00,
2013-01-25 01:17:00,60.3,51.0,30.19,North,353,0.0,0.0,71,0.00,,,0.00,WUHU216WMR968SP,2013-01-25 09:17:00,
2013-01-25 01:22:00,60.1,50.8,30.19,NNE,21,0.0,0.0,71,0.00,,,0.00,WUHU216WMR968SP,2013-01-25 09:22:00,
2013-01-25 01:27:00,60.1,50.4,30.19,NNE,18,0.0,0.0,70,0.00,,,0.00,WUHU216WMR968SP,2013-01-25 09:27:00,
2013-01-25 01:32:00,60.4,49.5,30.19,NNE,13,0.0,0.0,67,0.00,,,0.00,WUHU216WMR968SP,2013-01-25 09:32:00,
2013-01-25 01:37:00,61.0,49.7,30.19,North,357,0.0,0.0,66,0.00,,,0.00,WUHU216WMR968SP,2013-01-25 09:37:00,
2013-01-25 01:42:00,61.3,49.6,30.19,North,0,0.0,0.0,65,0.00,,,0.00,WUHU216WMR968SP,2013-01-25 09:42:00,
2013-01-25 01:47:00,61.7,49.6,30.19,North,10,0.0,0.0,64,0.00,,,0.00,WUHU216WMR968SP,2013-01-25 09:47:00,
2013-01-25 01:52:00,61.9,49.7,30.19,NNE,25,0.0,0.0,64,0.00,,,0.00,WUHU216WMR968SP,2013-01-25 09:52:00,
2013-01-25 01:57:00,62.1,49.9,30.19,ENE,61,0.0,0.0,64,0.00,,,0.00,WUHU216WMR968SP,2013-01-25 09:57:00,
2013-01-25 02:02:00,61.9,49.7,30.19,ENE,72,0.0,0.0,64,0.00,,,0.00,WUHU216WMR968SP,2013-01-25 10:02:00,
2013-01-25 02:07:00,61.7,49.6,30.19,ENE,71,0.0,0.0,64,0.00,,,0.00,WUHU216WMR968SP,2013-01-25 10:07:00,
2013-01-25 02:12:00,61.5,49.4,30.19,NE,56,0.0,0.0,64,0.00,,,0.00,WUHU216WMR968SP,2013-01-25 10:12:00,
2013-01-25 02:17:00,61.3,49.2,30.19,SE,130,0.0,0.0,64,0.00,,,0.00,WUHU216WMR968SP,2013-01-25 10:17:00,
2013-01-25 02:22:00,61.3,49.2,30.16,East,97,0.0,0.0,64,0.00,,,0.00,WUHU216WMR968SP,2013-01-25 10:22:00,
2013-01-25 02:27:00,61.3,49.2,30.16,East,87,0.0,0.0,64,0.00,,,0.00,WUHU216WMR968SP,2013-01-25 10:27:00,
2013-01-25 02:32:00,61.7,49.6,30.16,East,96,0.0,0.0,64,0.00,,,0.00,WUHU216WMR968SP,2013-01-25 10:32:00,
2013-01-25 02:37:00,62.2,49.2,30.16,East,93,0.0,0.0,62,0.00,,,0.00,WUHU216WMR968SP,2013-01-25 10:37:00,
2013-01-25 02:42:00,62.6,49.1,30.16,ESE,111,0.0,0.0,61,0.00,,,0.00,WUHU216WMR968SP,2013-01-25 10:42:00,
2013-01-25 02:47:00,63.0,49.5,30.16,ENE,72,0.0,0.0,61,0.00,,,0.00,WUHU216WMR968SP,2013-01-25 10:47:00,
2013-01-25 02:52:00,63.1,49.1,30.16,East,92,0.0,0.0,60,0.00,,,0.00,WUHU216WMR968SP,2013-01-25 10:52:00,
2013-01-25 02:57:00,63.3,49.3,30.16,NNE,19,0.0,0.0,60,0.00,,,0.00,WUHU216WMR968SP,2013-01-25 10:57:00,
2013-01-25 03:02:00,63.7,49.2,30.16,North,3,0.0,0.0,59,0.00,,,0.00,WUHU216WMR968SP,2013-01-25 11:02:00,
2013-01-25 03:07:00,63.9,49.4,30.13,North,0,0.0,0.0,59,0.00,,,0.00,WUHU216WMR968SP,2013-01-25 11:07:00,
2013-01-25 03:12:00,64.0,49.1,30.13,North,0,0.0,0.0,58,0.00,,,0.00,WUHU216WMR968SP,2013-01-25 11:12:00,
2013-01-25 03:17:00,64.0,49.1,30.13,NNE,13,0.0,0.0,58,0.00,,,0.00,WUHU216WMR968SP,2013-01-25 11:17:00,
2013-01-25 03:22:00,63.7,48.8,30.13,North,5,0.0,0.0,58,0.00,,,0.00,WUHU216WMR968SP,2013-01-25 11:22:00,
2013-01-25 03:27:00,63.0,49.0,30.13,NNE,13,0.0,0.0,60,0.00,,,0.00,WUHU216WMR968SP,2013-01-25 11:27:00,
2013-01-25 03:32:00,62.1,49.5,30.13,NNW,342,0.0,0.0,63,0.00,,,0.00,WUHU216WMR968SP,2013-01-25 11:32:00,
2013-01-25 03:37:00,61.5,49.4,30.13,North,357,0.0,0.0,64,0.00,,,0.00,WUHU216WMR968SP,2013-01-25 11:37:00,
2013-01-25 03:42:00,61.2,49.1,30.13,NNE,17,0.0,0.0,64,0.00,,,0.00,WUHU216WMR968SP,2013-01-25 11:42:00,
2013-01-25 03:47:00,61.0,48.9,30.13,NNE,18,0.0,0.0,64,0.00,,,0.00,WUHU216WMR968SP,2013-01-25 11:47:00,
2013-01-25 03:52:00,60.8,48.7,30.13,NNE,24,0.0,0.0,64,0.00,,,0.00,WUHU216WMR968SP,2013-01-25 11:52:00,
2013-01-25 03:57:00,60.6,48.9,30.13,NE,39,0.0,0.0,65,0.00,,,0.00,WUHU216WMR968SP,2013-01-25 11:57:00,
2013-01-25 04:02:00,60.6,48.9,30.13,ENE,62,0.0,0.0,65,0.00,,,0.00,WUHU216WMR968SP,2013-01-25 12:02:00,
2013-01-25 04:07:00,60.4,48.7,30.13,NNE,22,0.0,0.0,65,0.00,,,0.00,WUHU216WMR968SP,2013-01-25 12:07:00,
2013-01-25 04:12:00,60.4,48.7,30.13,North,10,0.0,0.0,65,0.00,,,0.00,WUHU216WMR968SP,2013-01-25 12:12:00,
2013-01-25 04:17:00,60.4,48.7,30.13,ENE,65,0.0,0.0,65,0.00,,,0.00,WUHU216WMR968SP,2013-01-25 12:17:00,
2013-01-25 04:22:00,60.6,48.9,30.13,ENE,78,0.0,0.0,65,0.00,,,0.00,WUHU216WMR968SP,2013-01-25 12:22:00,
2013-01-25 04:28:00,60.6,48.9,30.13,East,82,0.0,0.0,65,0.00,,,0.00,WUHU216WMR968SP,2013-01-25 12:28:00,
2013-01-25 04:33:00,60.8,48.7,30.13,ESE,113,0.0,0.0,64,0.00,,,0.00,WUHU216WMR968SP,2013-01-25 12:33:00,
2013-01-25 04:38:00,61.0,48.9,30.13,North,3,0.0,0.0,64,0.00,,,0.00,WUHU216WMR968SP,2013-01-25 12:38:00,
2013-01-25 04:43:00,61.5,49.4,30.13,NNE,13,0.0,0.0,64,0.00,,,0.00,WUHU216WMR968SP,2013-01-25 12:43:00,
2013-01-25 04:48:00,61.9,49.7,30.13,East,99,0.0,0.0,64,0.00,,,0.00,WUHU216WMR968SP,2013-01-25 12:48:00,
2013-01-25 04:53:00,62.1,49.5,30.13,ENE,71,0.0,0.0,63,0.00,,,0.00,WUHU216WMR968SP,2013-01-25 12:53:00,
2013-01-25 04:58:00,62.1,49.1,30.13,SE,125,0.0,0.0,62,0.00,,,0.00,WUHU216WMR968SP,2013-01-25 12:58:00,
2013-01-25 05:03:00,62.1,49.1,30.13,ESE,106,0.0,0.0,62,0.00,,,0.00,WUHU216WMR968SP,2013-01-25 13:03:00,
2013-01-25 05:08:00,62.1,49.1,30.13,ESE,105,0.0,0.0,62,0.00,,,0.00,WUHU216WMR968SP,2013-01-25 13:08:00,
2013-01-25 05:13:00,61.9,48.9,30.13,East,93,0.0,0.0,62,0.00,,,0.00,WUHU216WMR968SP,2013-01-25 13:13:00,
2013-01-25 05:18:00,61.7,48.7,30.13,SE,141,0.0,0.0,62,0.00,,,0.00,WUHU216WMR968SP,2013-01-25 13:18:00,
2013-01-25 05:23:00,61.7,49.1,30.16,East,96,0.0,0.0,63,0.00,,,0.00,WUHU216WMR968SP,2013-01-25 13:23:00,
2013-01-25 05:28:00,61.5,49.4,30.16,East,99,0.0,0.0,64,0.00,,,0.00,WUHU216WMR968SP,2013-01-25 13:28:00,
2013-01-25 05:33:00,61.3,49.2,30.16,NE,51,0.0,0.0,64,0.00,,,0.00,WUHU216WMR968SP,2013-01-25 13:33:00,
2013-01-25 05:38:00,61.0,48.9,30.16,ENE,58,0.0,0.0,64,0.00,,,0.00,WUHU216WMR968SP,2013-01-25 13:38:00,
2013-01-25 05:43:00,60.6,48.9,30.16,ENE,71,0.0,0.0,65,0.00,,,0.00,WUHU216WMR968SP,2013-01-25 13:43:00,
2013-01-25 05:48:00,60.3,49.0,30.16,ESE,116,0.0,0.0,66,0.04,,,0.04,WUHU216WMR968SP,2013-01-25 13:48:00,
2013-01-25 05:53:00,60.1,48.8,30.16,East,91,0.0,0.0,66,0.04,,,0.04,WUHU216WMR968SP,2013-01-25 13:53:00,
2013-01-25 05:58:00,59.9,49.1,30.16,NNE,32,0.0,0.0,67,0.04,,,0.04,WUHU216WMR968SP,2013-01-25 13:58:00,
2013-01-25 06:03:00,59.9,49.5,30.16,ESE,102,0.0,0.0,68,0.04,,,0.04,WUHU216WMR968SP,2013-01-25 14:03:00,
2013-01-25 06:08:00,60.1,49.6,30.16,East,92,0.0,0.0,68,0.04,,,0.04,WUHU216WMR968SP,2013-01-25 14:08:00,
2013-01-25 06:13:00,60.1,49.6,30.16,East,90,0.0,0.0,68,0.04,,,0.04,WUHU216WMR968SP,2013-01-25 14:13:00,
2013-01-25 06:18:00,60.3,49.8,30.16,North,2,0.0,0.0,68,0.04,,,0.04,WUHU216WMR968SP,2013-01-25 14:18:00,
2013-01-25 06:23:00,60.3,49.8,30.16,East,89,0.0,0.0,68,0.04,,,0.04,WUHU216WMR968SP,2013-01-25 14:23:00,
2013-01-25 06:28:00,60.3,49.8,30.16,ENE,78,0.0,0.0,68,0.04,,,0.04,WUHU216WMR968SP,2013-01-25 14:28:00,
2013-01-25 06:33:00,60.3,49.8,30.16,NE,55,0.0,0.0,68,0.04,,,0.04,WUHU216WMR968SP,2013-01-25 14:33:00,
2013-01-25 06:38:00,60.4,49.9,30.16,NNE,29,0.0,0.0,68,0.04,,,0.04,WUHU216WMR968SP,2013-01-25 14:38:00,
2013-01-25 06:43:00,60.8,49.9,30.16,East,83,0.0,0.0,67,0.04,,,0.04,WUHU216WMR968SP,2013-01-25 14:43:00,
2013-01-25 06:48:00,61.2,49.9,30.16,NNE,15,0.0,0.0,66,0.00,,,0.04,WUHU216WMR968SP,2013-01-25 14:48:00,
2013-01-25 06:53:00,61.3,50.0,30.16,North,11,0.0,0.0,66,0.00,,,0.04,WUHU216WMR968SP,2013-01-25 14:53:00,
2013-01-25 06:58:00,60.6,49.7,30.16,NNE,18,0.0,0.0,67,0.00,,,0.04,WUHU216WMR968SP,2013-01-25 14:58:00,
2013-01-25 07:03:00,60.3,49.4,30.16,ESE,107,0.0,0.0,67,0.00,,,0.04,WUHU216WMR968SP,2013-01-25 15:03:00,
2013-01-25 07:08:00,60.3,49.8,30.16,North,8,0.0,0.0,68,0.00,,,0.04,WUHU216WMR968SP,2013-01-25 15:08:00,
2013-01-25 07:13:00,60.3,49.8,30.16,East,83,0.0,0.0,68,0.00,,,0.04,WUHU216WMR968SP,2013-01-25 15:13:00,
2013-01-25 07:18:00,60.1,50.0,30.16,NNE,19,0.0,0.0,69,0.04,,,0.08,WUHU216WMR968SP,2013-01-25 15:18:00,
2013-01-25 07:23:00,59.9,50.2,30.16,NNE,23,0.0,0.0,70,0.04,,,0.08,WUHU216WMR968SP,2013-01-25 15:23:00,
2013-01-25 07:28:00,59.7,50.0,30.16,NNE,12,0.0,0.0,70,0.04,,,0.08,WUHU216WMR968SP,2013-01-25 15:28:00,
2013-01-25 07:33:00,59.7,50.4,30.16,ENE,69,0.0,0.0,71,0.04,,,0.08,WUHU216WMR968SP,2013-01-25 15:33:00,
2013-01-25 07:38:00,59.7,50.4,30.16,NE,44,0.0,0.0,71,0.04,,,0.08,WUHU216WMR968SP,2013-01-25 15:38:00,
2013-01-25 07:43:00,59.9,50.6,30.16,SE,143,0.0,0.0,71,0.04,,,0.08,WUHU216WMR968SP,2013-01-25 15:43:00,
2013-01-25 07:48:00,59.9,50.6,30.16,North,6,0.0,0.0,71,0.04,,,0.08,WUHU216WMR968SP,2013-01-25 15:48:00,
2013-01-25 07:53:00,60.3,50.6,30.16,North,3,0.0,0.0,70,0.04,,,0.08,WUHU216WMR968SP,2013-01-25 15:53:00,
2013-01-25 07:58:00,60.6,50.5,30.16,East,83,0.0,0.0,69,0.04,,,0.08,WUHU216WMR968SP,2013-01-25 15:58:00,
2013-01-25 08:03:00,60.6,50.5,30.16,ENE,70,0.0,0.0,69,0.04,,,0.08,WUHU216WMR968SP,2013-01-25 16:03:00,
2013-01-25 08:08:00,60.6,50.5,30.16,SE,141,0.0,0.0,69,0.04,,,0.08,WUHU216WMR968SP,2013-01-25 16:08:00,
2013-01-25 08:13:00,60.6,50.5,30.16,ESE,105,0.0,0.0,69,0.04,,,0.08,WUHU216WMR968SP,2013-01-25 16:13:00,
2013-01-25 08:18:00,60.6,50.9,30.16,ENE,68,0.0,0.0,70,0.00,,,0.08,WUHU216WMR968SP,2013-01-25 16:18:00,
2013-01-25 08:23:00,60.4,50.7,30.19,East,92,0.0,0.0,70,0.00,,,0.08,WUHU216WMR968SP,2013-01-25 16:23:00,
2013-01-25 08:28:00,60.4,50.7,30.19,ESE,116,0.0,0.0,70,0.00,,,0.08,WUHU216WMR968SP,2013-01-25 16:28:00,
2013-01-25 08:33:00,60.4,50.3,30.19,ENE,75,0.0,0.0,69,0.00,,,0.08,WUHU216WMR968SP,2013-01-25 16:33:00,
2013-01-25 08:38:00,60.6,50.1,30.19,ESE,102,0.0,0.0,68,0.00,,,0.08,WUHU216WMR968SP,2013-01-25 16:38:00,
2013-01-25 08:43:00,60.8,49.9,30.19,SE,142,0.0,0.0,67,0.00,,,0.08,WUHU216WMR968SP,2013-01-25 16:43:00,
2013-01-25 08:48:00,61.0,50.1,30.19,East,82,0.0,0.0,67,0.00,,,0.08,WUHU216WMR968SP,2013-01-25 16:48:00,
2013-01-25 08:53:00,61.2,49.9,30.19,ESE,122,0.0,0.0,66,0.00,,,0.08,WUHU216WMR968SP,2013-01-25 16:53:00,
2013-01-25 08:58:00,61.3,50.0,30.19,ESE,113,0.0,0.0,66,0.00,,,0.08,WUHU216WMR968SP,2013-01-25 16:58:00,
2013-01-25 09:03:00,61.2,49.9,30.19,NNW,344,0.0,0.0,66,0.00,,,0.08,WUHU216WMR968SP,2013-01-25 17:03:00,
2013-01-25 09:08:00,61.2,49.5,30.19,ESE,104,0.0,0.0,65,0.00,,,0.08,WUHU216WMR968SP,2013-01-25 17:08:00,
2013-01-25 09:13:00,61.3,50.0,30.19,SSE,159,0.0,0.0,66,0.00,,,0.08,WUHU216WMR968SP,2013-01-25 17:13:00,
2013-01-25 09:18:00,61.2,49.9,30.19,NNE,22,0.0,0.0,66,0.00,,,0.08,WUHU216WMR968SP,2013-01-25 17:18:00,
2013-01-25 09:23:00,61.0,49.7,30.19,NNE,22,0.0,0.0,66,0.00,,,0.08,WUHU216WMR968SP,2013-01-25 17:23:00,
2013-01-25 09:28:00,61.2,49.9,30.19,North,9,0.0,0.0,66,0.00,,,0.08,WUHU216WMR968SP,2013-01-25 17:28:00,
2013-01-25 09:33:00,61.3,50.0,30.19,NNE,27,0.0,0.0,66,0.00,,,0.08,WUHU216WMR968SP,2013-01-25 17:33:00,
2013-01-25 09:38:00,61.3,50.0,30.19,NNE,27,0.0,0.0,66,0.00,,,0.08,WUHU216WMR968SP,2013-01-25 17:38:00,
2013-01-25 09:43:00,61.5,50.2,30.19,North,357,0.0,0.0,66,0.00,,,0.08,WUHU216WMR968SP,2013-01-25 17:43:00,
2013-01-25 09:48:00,61.7,50.0,30.19,North,357,0.0,0.0,65,0.00,,,0.08,WUHU216WMR968SP,2013-01-25 17:48:00,
2013-01-25 09:53:00,61.7,50.0,30.19,East,101,0.0,0.0,65,0.00,,,0.08,WUHU216WMR968SP,2013-01-25 17:53:00,
2013-01-25 09:58:00,61.7,50.0,30.19,North,9,0.0,0.0,65,0.00,,,0.08,WUHU216WMR968SP,2013-01-25 17:58:00,
2013-01-25 10:03:00,61.7,50.0,30.19,ESE,113,0.0,0.0,65,0.00,,,0.08,WUHU216WMR968SP,2013-01-25 18:03:00,
2013-01-25 10:08:00,61.7,50.0,30.19,NNE,31,0.0,0.0,65,0.00,,,0.08,WUHU216WMR968SP,2013-01-25 18:08:00,
2013-01-25 10:13:00,61.9,50.2,30.19,ESE,112,0.0,0.0,65,0.00,,,0.08,WUHU216WMR968SP,2013-01-25 18:13:00,
2013-01-25 10:18:00,61.9,50.2,30.19,NNE,13,0.0,0.0,65,0.00,,,0.08,WUHU216WMR968SP,2013-01-25 18:18:00,
2013-01-25 10:23:00,62.1,50.3,30.19,North,353,0.0,0.0,65,0.00,,,0.08,WUHU216WMR968SP,2013-01-25 18:23:00,
2013-01-25 10:28:00,62.2,50.4,30.19,NNE,20,0.0,0.0,65,0.00,,,0.08,WUHU216WMR968SP,2013-01-25 18:28:00,
2013-01-25 10:33:00,62.2,50.4,30.19,North,7,0.0,0.0,65,0.00,,,0.08,WUHU216WMR968SP,2013-01-25 18:33:00,
2013-01-25 10:38:00,62.2,50.4,30.19,North,2,0.0,0.0,65,0.00,,,0.08,WUHU216WMR968SP,2013-01-25 18:38:00,
2013-01-25 10:43:00,62.4,50.6,30.19,ENE,67,0.0,0.0,65,0.00,,,0.08,WUHU216WMR968SP,2013-01-25 18:43:00,
2013-01-25 10:48:00,62.6,50.4,30.19,North,357,0.0,0.0,64,0.00,,,0.08,WUHU216WMR968SP,2013-01-25 18:48:00,
2013-01-25 10:53:00,62.6,50.4,30.19,NNE,21,0.0,0.0,64,0.00,,,0.08,WUHU216WMR968SP,2013-01-25 18:53:00,
2013-01-25 10:58:00,62.8,50.6,30.19,ENE,75,0.0,0.0,64,0.00,,,0.08,WUHU216WMR968SP,2013-01-25 18:58:00,
2013-01-25 11:03:00,63.0,50.8,30.19,NE,39,0.0,0.0,64,0.00,,,0.08,WUHU216WMR968SP,2013-01-25 19:03:00,
2013-01-25 11:08:00,63.0,50.8,30.19,NE,34,0.0,0.0,64,0.00,,,0.08,WUHU216WMR968SP,2013-01-25 19:08:00,
2013-01-25 11:13:00,63.1,50.9,30.19,ENE,73,0.0,0.0,64,0.00,,,0.08,WUHU216WMR968SP,2013-01-25 19:13:00,
2013-01-25 11:18:00,63.5,51.3,30.19,NNE,20,0.0,0.0,64,0.00,,,0.08,WUHU216WMR968SP,2013-01-25 19:18:00,
2013-01-25 11:23:00,63.7,51.5,30.16,SE,125,0.0,0.0,64,0.00,,,0.08,WUHU216WMR968SP,2013-01-25 19:23:00,
2013-01-25 11:28:00,63.7,51.5,30.16,NNW,331,0.0,0.0,64,0.00,,,0.08,WUHU216WMR968SP,2013-01-25 19:28:00,
2013-01-25 11:33:00,63.7,51.5,30.16,North,11,0.0,0.0,64,0.00,,,0.08,WUHU216WMR968SP,2013-01-25 19:33:00,
2013-01-25 11:38:00,63.9,51.6,30.13,ENE,57,0.0,0.0,64,0.00,,,0.08,WUHU216WMR968SP,2013-01-25 19:38:00,
2013-01-25 11:43:00,64.0,51.7,30.13,NE,47,0.0,0.0,64,0.00,,,0.08,WUHU216WMR968SP,2013-01-25 19:43:00,
2013-01-25 11:48:00,64.0,51.7,30.13,North,1,0.0,0.0,64,0.00,,,0.08,WUHU216WMR968SP,2013-01-25 19:48:00,
2013-01-25 11:53:00,63.9,51.6,30.16,NE,40,0.0,0.0,64,0.00,,,0.08,WUHU216WMR968SP,2013-01-25 19:53:00,
2013-01-25 11:58:00,63.9,51.6,30.16,ENE,73,0.0,0.0,64,0.00,,,0.08,WUHU216WMR968SP,2013-01-25 19:58:00,
2013-01-25 12:03:00,63.9,51.6,30.16,ENE,63,0.0,0.0,64,0.00,,,0.08,WUHU216WMR968SP,2013-01-25 20:03:00,
2013-01-25 12:08:00,64.0,51.7,30.13,ESE,104,0.0,0.0,64,0.00,,,0.08,WUHU216WMR968SP,2013-01-25 20:08:00,
2013-01-25 12:13:00,64.2,51.9,30.13,ENE,61,0.0,0.0,64,0.00,,,0.08,WUHU216WMR968SP,2013-01-25 20:13:00,
2013-01-25 12:18:00,64.2,51.5,30.13,East,99,0.0,0.0,63,0.00,,,0.08,WUHU216WMR968SP,2013-01-25 20:18:00,
2013-01-25 12:23:00,64.4,51.7,30.13,NNE,30,0.0,0.0,63,0.00,,,0.08,WUHU216WMR968SP,2013-01-25 20:23:00,
2013-01-25 12:28:00,64.4,51.7,30.13,East,96,0.0,0.0,63,0.00,,,0.08,WUHU216WMR968SP,2013-01-25 20:28:00,
2013-01-25 12:33:00,64.4,51.7,30.13,NE,54,0.0,0.0,63,0.00,,,0.08,WUHU216WMR968SP,2013-01-25 20:33:00,
2013-01-25 12:38:00,64.6,51.9,30.13,NE,54,0.0,0.0,63,0.00,,,0.08,WUHU216WMR968SP,2013-01-25 20:38:00,
2013-01-25 12:43:00,64.6,51.4,30.13,NNE,22,0.0,0.0,62,0.00,,,0.08,WUHU216WMR968SP,2013-01-25 20:43:00,
2013-01-25 12:48:00,64.8,51.6,30.13,NE,46,0.0,0.0,62,0.00,,,0.08,WUHU216WMR968SP,2013-01-25 20:48:00,
2013-01-25 12:53:00,64.9,51.7,30.10,ENE,72,0.0,0.0,62,0.00,,,0.08,WUHU216WMR968SP,2013-01-25 20:53:00,
2013-01-25 12:58:00,65.1,51.9,30.10,NE,40,0.0,0.0,62,0.00,,,0.08,WUHU216WMR968SP,2013-01-25 20:58:00,
2013-01-25 13:03:00,65.1,51.9,30.10,North,357,0.0,0.0,62,0.00,,,0.08,WUHU216WMR968SP,2013-01-25 21:03:00,
2013-01-25 13:08:00,65.1,51.9,30.10,NNW,335,0.0,0.0,62,0.00,,,0.08,WUHU216WMR968SP,2013-01-25 21:08:00,
2013-01-25 13:13:00,64.8,51.2,30.10,NNE,18,0.0,0.0,61,0.00,,,0.08,WUHU216WMR968SP,2013-01-25 21:13:00,
2013-01-25 13:18:00,64.8,51.2,30.10,NNE,25,0.0,0.0,61,0.00,,,0.08,WUHU216WMR968SP,2013-01-25 21:18:00,
2013-01-25 13:23:00,64.8,51.2,30.10,NNE,21,0.0,0.0,61,0.00,,,0.08,WUHU216WMR968SP,2013-01-25 21:23:00,
2013-01-25 13:28:00,64.8,50.7,30.10,NNE,19,0.0,0.0,60,0.00,,,0.08,WUHU216WMR968SP,2013-01-25 21:28:00,
2013-01-25 13:33:00,64.9,50.8,30.10,NNE,26,0.0,0.0,60,0.00,,,0.08,WUHU216WMR968SP,2013-01-25 21:33:00,
2013-01-25 13:38:00,64.9,50.8,30.07,North,8,0.0,0.0,60,0.00,,,0.08,WUHU216WMR968SP,2013-01-25 21:38:00,
2013-01-25 13:43:00,64.9,50.8,30.07,NNE,19,0.0,0.0,60,0.00,,,0.08,WUHU216WMR968SP,2013-01-25 21:43:00,
2013-01-25 13:48:00,64.9,50.4,30.07,ESE,105,0.0,0.0,59,0.00,,,0.08,WUHU216WMR968SP,2013-01-25 21:48:00,
2013-01-25 13:53:00,64.9,50.8,30.10,ESE,120,0.0,0.0,60,0.00,,,0.08,WUHU216WMR968SP,2013-01-25 21:53:00,
2013-01-25 13:58:00,64.9,50.8,30.10,East,95,0.0,0.0,60,0.00,,,0.08,WUHU216WMR968SP,2013-01-25 21:58:00,
2013-01-25 14:03:00,64.9,50.8,30.10,ENE,75,0.0,0.0,60,0.00,,,0.08,WUHU216WMR968SP,2013-01-25 22:03:00,
2013-01-25 14:08:00,64.8,50.7,30.10,East,88,0.0,0.0,60,0.00,,,0.08,WUHU216WMR968SP,2013-01-25 22:08:00,
2013-01-25 14:13:00,64.4,50.8,30.10,East,85,0.0,0.0,61,0.00,,,0.08,WUHU216WMR968SP,2013-01-25 22:13:00,
2013-01-25 14:18:00,64.0,51.3,30.10,East,84,0.0,0.0,63,0.00,,,0.08,WUHU216WMR968SP,2013-01-25 22:18:00,
2013-01-25 14:23:00,63.9,51.2,30.10,ESE,105,0.0,0.0,63,0.00,,,0.08,WUHU216WMR968SP,2013-01-25 22:23:00,
2013-01-25 14:28:00,63.5,51.3,30.10,East,96,0.0,0.0,64,0.00,,,0.08,WUHU216WMR968SP,2013-01-25 22:28:00,
2013-01-25 14:33:00,63.3,51.1,30.10,East,98,0.0,0.0,64,0.00,,,0.08,WUHU216WMR968SP,2013-01-25 22:33:00,
2013-01-25 14:38:00,63.0,50.8,30.10,ESE,103,0.0,0.0,64,0.00,,,0.08,WUHU216WMR968SP,2013-01-25 22:38:00,
2013-01-25 14:43:00,62.8,51.0,30.10,ENE,76,0.0,0.0,65,0.00,,,0.08,WUHU216WMR968SP,2013-01-25 22:43:00,
2013-01-25 14:48:00,62.6,50.8,30.10,East,89,0.0,0.0,65,0.00,,,0.08,WUHU216WMR968SP,2013-01-25 22:48:00,
2013-01-25 14:53:00,62.4,51.0,30.10,East,97,0.0,0.0,66,0.00,,,0.08,WUHU216WMR968SP,2013-01-25 22:53:00,
2013-01-25 14:58:00,62.2,51.3,30.10,East,95,0.0,0.0,67,0.00,,,0.08,WUHU216WMR968SP,2013-01-25 22:58:00,
2013-01-25 15:03:00,62.2,51.3,30.10,ESE,111,0.0,0.0,67,0.00,,,0.08,WUHU216WMR968SP,2013-01-25 23:03:00,
2013-01-25 15:08:00,62.2,51.3,30.10,ENE,68,0.0,0.0,67,0.00,,,0.08,WUHU216WMR968SP,2013-01-25 23:08:00,
2013-01-25 15:13:00,62.2,51.3,30.10,ENE,76,0.0,0.0,67,0.00,,,0.08,WUHU216WMR968SP,2013-01-25 23:13:00,
2013-01-25 15:18:00,62.2,51.3,30.10,East,89,0.0,0.0,67,0.00,,,0.08,WUHU216WMR968SP,2013-01-25 23:18:00,
2013-01-25 15:23:00,62.4,51.5,30.07,East,83,0.0,0.0,67,0.00,,,0.08,WUHU216WMR968SP,2013-01-25 23:23:00,
2013-01-25 15:28:00,62.4,51.5,30.07,East,94,0.0,0.0,67,0.00,,,0.08,WUHU216WMR968SP,2013-01-25 23:28:00,
2013-01-25 15:33:00,62.6,51.2,30.07,ESE,102,0.0,0.0,66,0.00,,,0.08,WUHU216WMR968SP,2013-01-25 23:33:00,
2013-01-25 15:38:00,62.6,51.2,30.07,East,80,0.0,0.0,66,0.00,,,0.08,WUHU216WMR968SP,2013-01-25 23:38:00,
2013-01-25 15:43:00,62.6,51.2,30.07,East,93,0.0,0.0,66,0.00,,,0.08,WUHU216WMR968SP,2013-01-25 23:43:00,
2013-01-25 15:48:00,62.8,51.4,30.07,East,93,0.0,0.0,66,0.00,,,0.08,WUHU216WMR968SP,2013-01-25 23:48:00,
2013-01-25 15:53:00,62.8,51.4,30.07,East,83,0.0,0.0,66,0.00,,,0.08,WUHU216WMR968SP,2013-01-25 23:53:00,
2013-01-25 15:58:00,62.6,50.8,30.07,SE,125,0.0,0.0,65,0.00,,,0.08,WUHU216WMR968SP,2013-01-25 23:58:00,
2013-01-25 16:03:00,62.8,51.0,30.07,East,95,0.0,0.0,65,0.00,,,0.08,WUHU216WMR968SP,2013-01-26 00:03:00,
2013-01-25 16:08:00,62.8,51.0,30.07,East,88,0.0,0.0,65,0.00,,,0.08,WUHU216WMR968SP,2013-01-26 00:08:00,
2013-01-25 16:13:00,62.6,50.8,30.07,East,80,0.0,0.0,65,0.00,,,0.08,WUHU216WMR968SP,2013-01-26 00:13:00,
2013-01-25 16:18:00,62.6,50.8,30.07,ESE,110,0.0,0.0,65,0.00,,,0.08,WUHU216WMR968SP,2013-01-26 00:18:00,
2013-01-25 16:23:00,62.6,50.8,30.04,ESE,107,0.0,0.0,65,0.00,,,0.08,WUHU216WMR968SP,2013-01-26 00:23:00,
2013-01-25 16:28:00,62.6,50.8,30.04,ESE,103,0.0,0.0,65,0.00,,,0.08,WUHU216WMR968SP,2013-01-26 00:28:00,
2013-01-25 16:33:00,62.6,50.8,30.04,ESE,103,0.0,0.0,65,0.00,,,0.08,WUHU216WMR968SP,2013-01-26 00:33:00,
2013-01-25 16:38:00,62.6,51.2,30.07,ESE,103,0.0,0.0,66,0.00,,,0.08,WUHU216WMR968SP,2013-01-26 00:38:00,
2013-01-25 16:43:00,62.4,51.0,30.07,ESE,103,0.0,0.0,66,0.00,,,0.08,WUHU216WMR968SP,2013-01-26 00:43:00,
2013-01-25 16:48:00,62.2,50.9,30.07,ESE,103,0.0,0.0,66,0.00,,,0.08,WUHU216WMR968SP,2013-01-26 00:48:00,
2013-01-25 16:53:00,62.2,51.3,30.07,ESE,103,0.0,0.0,67,0.00,,,0.08,WUHU216WMR968SP,2013-01-26 00:53:00,
2013-01-25 16:58:00,61.9,51.0,30.07,ESE,104,0.0,0.0,67,0.00,,,0.08,WUHU216WMR968SP,2013-01-26 00:58:00,
2013-01-25 17:03:00,61.9,51.4,30.07,ESE,103,0.0,0.0,68,0.00,,,0.08,WUHU216WMR968SP,2013-01-26 01:03:00,
2013-01-25 17:08:00,61.7,51.2,30.04,ESE,103,0.0,0.0,68,0.00,,,0.08,WUHU216WMR968SP,2013-01-26 01:08:00,
2013-01-25 17:13:00,61.7,51.2,30.04,NNE,18,0.0,0.0,68,0.00,,,0.08,WUHU216WMR968SP,2013-01-26 01:13:00,
2013-01-25 17:18:00,61.5,51.0,30.04,NNE,18,0.0,0.0,68,0.00,,,0.08,WUHU216WMR968SP,2013-01-26 01:18:00,
2013-01-25 17:23:00,61.5,51.4,30.01,NNE,13,0.0,0.0,69,0.00,,,0.08,WUHU216WMR968SP,2013-01-26 01:23:00,
2013-01-25 17:28:00,61.5,51.4,30.01,NNE,14,0.0,0.0,69,0.00,,,0.08,WUHU216WMR968SP,2013-01-26 01:28:00,
2013-01-25 17:33:00,61.3,51.2,30.01,North,1,0.0,0.0,69,0.00,,,0.08,WUHU216WMR968SP,2013-01-26 01:33:00,
2013-01-25 17:39:00,61.3,51.2,30.04,North,1,0.0,0.0,69,0.00,,,0.08,WUHU216WMR968SP,2013-01-26 01:39:00,
2013-01-25 17:44:00,61.3,51.6,30.04,North,357,0.0,0.0,70,0.00,,,0.08,WUHU216WMR968SP,2013-01-26 01:44:00,
2013-01-25 17:49:00,61.3,51.6,30.04,North,357,0.0,0.0,70,0.00,,,0.08,WUHU216WMR968SP,2013-01-26 01:49:00,
2013-01-25 17:54:00,61.2,51.9,30.04,North,357,0.0,0.0,71,0.00,,,0.08,WUHU216WMR968SP,2013-01-26 01:54:00,
2013-01-25 17:59:00,61.2,52.2,30.04,North,357,0.0,0.0,72,0.00,,,0.08,WUHU216WMR968SP,2013-01-26 01:59:00,
2013-01-25 18:04:00,61.2,52.6,30.04,North,357,0.0,0.0,73,0.00,,,0.08,WUHU216WMR968SP,2013-01-26 02:04:00,
2013-01-25 18:09:00,61.0,52.4,30.07,North,357,0.0,0.0,73,0.00,,,0.08,WUHU216WMR968SP,2013-01-26 02:09:00,
2013-01-25 18:14:00,61.0,52.4,30.07,North,357,0.0,0.0,73,0.00,,,0.08,WUHU216WMR968SP,2013-01-26 02:14:00,
2013-01-25 18:19:00,61.0,52.4,30.07,North,357,0.0,0.0,73,0.00,,,0.08,WUHU216WMR968SP,2013-01-26 02:19:00,
2013-01-25 18:24:00,60.8,52.6,30.07,NNE,15,0.0,0.0,74,0.00,,,0.08,WUHU216WMR968SP,2013-01-26 02:24:00,
2013-01-25 18:29:00,60.8,52.6,30.07,NNE,15,0.0,0.0,74,0.00,,,0.08,WUHU216WMR968SP,2013-01-26 02:29:00,
2013-01-25 18:34:00,60.8,52.9,30.07,North,8,0.0,0.0,75,0.00,,,0.08,WUHU216WMR968SP,2013-01-26 02:34:00,
2013-01-25 18:39:00,60.8,52.9,30.07,North,11,0.0,0.0,75,0.00,,,0.08,WUHU216WMR968SP,2013-01-26 02:39:00,
2013-01-25 18:44:00,60.8,52.9,30.07,NNE,22,0.0,0.0,75,0.00,,,0.08,WUHU216WMR968SP,2013-01-26 02:44:00,
2013-01-25 18:49:00,60.8,53.3,30.07,NNE,21,0.0,0.0,76,0.00,,,0.08,WUHU216WMR968SP,2013-01-26 02:49:00,
2013-01-25 18:54:00,60.8,53.3,30.07,NNE,21,0.0,0.0,76,0.00,,,0.08,WUHU216WMR968SP,2013-01-26 02:54:00,
2013-01-25 18:59:00,60.8,53.3,30.07,NNE,21,0.0,0.0,76,0.00,,,0.08,WUHU216WMR968SP,2013-01-26 02:59:00,
2013-01-25 19:04:00,60.8,53.3,30.07,NNE,21,0.0,0.0,76,0.00,,,0.08,WUHU216WMR968SP,2013-01-26 03:04:00,
2013-01-25 19:09:00,60.6,53.1,30.07,NNE,21,0.0,0.0,76,0.00,,,0.08,WUHU216WMR968SP,2013-01-26 03:09:00,
2013-01-25 19:14:00,60.6,53.1,30.07,NNE,21,0.0,0.0,76,0.00,,,0.08,WUHU216WMR968SP,2013-01-26 03:14:00,
2013-01-25 19:19:00,60.6,53.1,30.07,NNE,21,0.0,0.0,76,0.00,,,0.08,WUHU216WMR968SP,2013-01-26 03:19:00,
2013-01-25 19:24:00,60.6,53.1,30.07,NNE,21,0.0,0.0,76,0.00,,,0.08,WUHU216WMR968SP,2013-01-26 03:24:00,
2013-01-25 19:29:00,60.6,52.7,30.07,NNE,13,0.0,0.0,75,0.00,,,0.08,WUHU216WMR968SP,2013-01-26 03:29:00,
2013-01-25 19:34:00,61.0,53.1,30.07,NNE,17,0.0,0.0,75,0.00,,,0.08,WUHU216WMR968SP,2013-01-26 03:34:00,
2013-01-25 19:39:00,61.2,53.7,30.07,North,2,0.0,0.0,76,0.00,,,0.08,WUHU216WMR968SP,2013-01-26 03:39:00,
2013-01-25 19:44:00,61.2,53.7,30.07,North,0,0.0,0.0,76,0.00,,,0.08,WUHU216WMR968SP,2013-01-26 03:44:00,
2013-01-25 19:49:00,61.2,53.7,30.07,NNE,16,0.0,0.0,76,0.00,,,0.08,WUHU216WMR968SP,2013-01-26 03:49:00,
2013-01-25 19:54:00,61.0,53.8,30.07,NNE,29,0.0,0.0,77,0.00,,,0.08,WUHU216WMR968SP,2013-01-26 03:54:00,
2013-01-25 19:59:00,60.8,54.0,30.07,NNE,23,0.0,0.0,78,0.00,,,0.08,WUHU216WMR968SP,2013-01-26 03:59:00,
2013-01-25 20:04:00,60.8,54.3,30.07,NNE,15,0.0,0.0,79,0.04,,,0.12,WUHU216WMR968SP,2013-01-26 04:04:00,
2013-01-25 20:09:00,60.6,54.1,30.04,North,10,0.0,0.0,79,0.04,,,0.12,WUHU216WMR968SP,2013-01-26 04:09:00,
2013-01-25 20:14:00,60.6,54.5,30.04,NNE,12,0.0,0.0,80,0.04,,,0.12,WUHU216WMR968SP,2013-01-26 04:14:00,
2013-01-25 20:19:00,60.4,54.6,30.04,NNE,21,0.0,0.0,81,0.04,,,0.12,WUHU216WMR968SP,2013-01-26 04:19:00,
2013-01-25 20:24:00,60.4,54.9,30.04,North,8,0.0,0.0,82,0.04,,,0.12,WUHU216WMR968SP,2013-01-26 04:24:00,
2013-01-25 20:29:00,60.3,54.8,30.04,NNE,15,0.0,0.0,82,0.04,,,0.12,WUHU216WMR968SP,2013-01-26 04:29:00,
2013-01-25 20:34:00,60.1,54.6,30.04,North,0,0.0,0.0,82,0.04,,,0.12,WUHU216WMR968SP,2013-01-26 04:34:00,
2013-01-25 20:39:00,60.1,54.3,30.04,North,357,0.0,0.0,81,0.04,,,0.12,WUHU216WMR968SP,2013-01-26 04:39:00,
2013-01-25 20:44:00,60.1,54.6,30.04,North,349,0.0,0.0,82,0.04,,,0.12,WUHU216WMR968SP,2013-01-26 04:44:00,
2013-01-25 20:49:00,60.1,54.6,30.04,North,349,0.0,0.0,82,0.04,,,0.12,WUHU216WMR968SP,2013-01-26 04:49:00,
2013-01-25 20:54:00,60.1,54.6,30.04,North,349,0.0,0.0,82,0.04,,,0.12,WUHU216WMR968SP,2013-01-26 04:54:00,
2013-01-25 20:59:00,60.1,54.6,30.04,North,349,0.0,0.0,82,0.04,,,0.12,WUHU216WMR968SP,2013-01-26 04:59:00,
2013-01-25 21:04:00,60.1,54.9,30.04,North,349,0.0,0.0,83,0.00,,,0.12,WUHU216WMR968SP,2013-01-26 05:04:00,
2013-01-25 21:09:00,60.1,54.9,30.07,North,349,0.0,0.0,83,0.00,,,0.12,WUHU216WMR968SP,2013-01-26 05:09:00,
2013-01-25 21:14:00,59.9,54.8,30.07,North,349,0.0,0.0,83,0.00,,,0.12,WUHU216WMR968SP,2013-01-26 05:14:00,
2013-01-25 21:19:00,59.9,54.8,30.07,North,4,0.0,0.0,83,0.00,,,0.12,WUHU216WMR968SP,2013-01-26 05:19:00,
2013-01-25 21:24:00,59.7,54.2,30.04,NNE,19,0.0,0.0,82,0.00,,,0.12,WUHU216WMR968SP,2013-01-26 05:24:00,
2013-01-25 21:29:00,59.7,54.2,30.04,NNE,12,0.0,0.0,82,0.00,,,0.12,WUHU216WMR968SP,2013-01-26 05:29:00,
2013-01-25 21:34:00,59.7,53.6,30.04,North,3,0.0,0.0,80,0.00,,,0.12,WUHU216WMR968SP,2013-01-26 05:34:00,
2013-01-25 21:39:00,59.9,53.4,30.04,North,3,0.0,0.0,79,0.00,,,0.12,WUHU216WMR968SP,2013-01-26 05:39:00,
2013-01-25 21:44:00,60.1,53.6,30.04,NNW,329,0.0,0.0,79,0.00,,,0.12,WUHU216WMR968SP,2013-01-26 05:44:00,
2013-01-25 21:49:00,60.1,53.6,30.04,North,0,0.0,0.0,79,0.00,,,0.12,WUHU216WMR968SP,2013-01-26 05:49:00,
2013-01-25 21:54:00,60.1,53.6,30.04,North,0,0.0,0.0,79,0.00,,,0.12,WUHU216WMR968SP,2013-01-26 05:54:00,
2013-01-25 21:59:00,60.1,53.6,30.04,NNE,14,0.0,0.0,79,0.00,,,0.12,WUHU216WMR968SP,2013-01-26 05:59:00,
2013-01-25 22:04:00,60.1,53.6,30.04,NNE,12,0.0,0.0,79,0.00,,,0.12,WUHU216WMR968SP,2013-01-26 06:04:00,
2013-01-25 22:09:00,60.1,53.6,30.04,North,8,0.0,0.0,79,0.00,,,0.12,WUHU216WMR968SP,2013-01-26 06:09:00,
2013-01-25 22:14:00,60.1,53.3,30.04,North,8,0.0,0.0,78,0.00,,,0.12,WUHU216WMR968SP,2013-01-26 06:14:00,
2013-01-25 22:19:00,60.1,53.3,30.04,North,8,0.0,0.0,78,0.00,,,0.12,WUHU216WMR968SP,2013-01-26 06:19:00,
2013-01-25 22:24:00,60.1,53.3,30.04,North,8,0.0,0.0,78,0.00,,,0.12,WUHU216WMR968SP,2013-01-26 06:24:00,
2013-01-25 22:29:00,60.1,53.0,30.04,North,8,0.0,0.0,77,0.00,,,0.12,WUHU216WMR968SP,2013-01-26 06:29:00,
2013-01-25 22:34:00,60.3,53.1,30.04,North,8,0.0,0.0,77,0.00,,,0.12,WUHU216WMR968SP,2013-01-26 06:34:00,
2013-01-25 22:39:00,60.3,53.1,30.04,North,8,0.0,0.0,77,0.00,,,0.12,WUHU216WMR968SP,2013-01-26 06:39:00,
2013-01-25 22:44:00,60.3,52.8,30.04,North,0,0.0,0.0,76,0.00,,,0.12,WUHU216WMR968SP,2013-01-26 06:44:00,
2013-01-25 22:49:00,60.3,52.8,30.04,North,0,0.0,0.0,76,0.00,,,0.12,WUHU216WMR968SP,2013-01-26 06:49:00,
2013-01-25 22:54:00,60.3,52.8,30.04,North,0,0.0,0.0,76,0.00,,,0.12,WUHU216WMR968SP,2013-01-26 06:54:00,
2013-01-25 22:59:00,60.3,52.8,30.04,North,0,0.0,0.0,76,0.00,,,0.12,WUHU216WMR968SP,2013-01-26 06:59:00,
2013-01-25 23:04:00,60.3,52.8,30.04,North,0,0.0,0.0,76,0.00,,,0.12,WUHU216WMR968SP,2013-01-26 07:04:00,
2013-01-25 23:09:00,60.1,52.6,30.04,North,0,0.0,0.0,76,0.00,,,0.12,WUHU216WMR968SP,2013-01-26 07:09:00,
2013-01-25 23:14:00,60.1,52.6,30.04,North,0,0.0,0.0,76,0.00,,,0.12,WUHU216WMR968SP,2013-01-26 07:14:00,
2013-01-25 23:19:00,60.1,53.0,30.04,North,0,0.0,0.0,77,0.00,,,0.12,WUHU216WMR968SP,2013-01-26 07:19:00,
2013-01-25 23:24:00,59.9,52.8,30.04,North,0,0.0,0.0,77,0.00,,,0.12,WUHU216WMR968SP,2013-01-26 07:24:00,
2013-01-25 23:29:00,59.9,52.8,30.04,ENE,72,0.0,0.0,77,0.00,,,0.12,WUHU216WMR968SP,2013-01-26 07:29:00,
2013-01-25 23:34:00,59.9,52.8,30.04,ENE,72,0.0,0.0,77,0.00,,,0.12,WUHU216WMR968SP,2013-01-26 07:34:00,
2013-01-25 23:39:00,59.9,53.1,30.04,ENE,72,0.0,0.0,78,0.00,,,0.12,WUHU216WMR968SP,2013-01-26 07:39:00,
2013-01-25 23:44:00,59.9,53.1,30.04,ENE,72,0.0,0.0,78,0.00,,,0.12,WUHU216WMR968SP,2013-01-26 07:44:00,
2013-01-25 23:49:00,59.9,53.1,30.04,ENE,72,0.0,0.0,78,0.00,,,0.12,WUHU216WMR968SP,2013-01-26 07:49:00,
2013-01-25 23:54:00,59.9,53.1,30.04,ENE,72,0.0,0.0,78,0.00,,,0.12,WUHU216WMR968SP,2013-01-26 07:54:00,
2013-01-25 23:59:00,59.9,53.1,30.04,ENE,72,0.0,0.0,78,0.00,,,0.12,WUHU216WMR968SP,2013-01-26 07:59:00,